sensor_id;sensor_type;location;lat;lon;timestamp;temperature;humidity
15789;DHT22;59075;50.670;6.474;2022-09-19T05:00:05;17.50;99.90
15789;DHT22;59075;50.670;6.474;2022-09-19T05:02:31;17.50;99.90
15789;DHT22;59075;50.670;6.474;2022-09-19T05:04:58;17.50;99.90
15789;DHT22;59075;50.670;6.474;2022-09-19T05:07:25;17.50;99.90
15789;DHT22;59075;50.670;6.474;2022-09-19T05:09:59;17.50;99.90
15789;DHT22;59075;50.670;6.474;2022-09-19T05:12:26;17.50;99.90
15789;DHT22;59075;50.670;6.474;2022-09-19T05:14:54;17.50;99.90
15789;DHT22;59075;50.670;6.474;2022-09-19T05:17:22;17.50;99.90
15789;DHT22;59075;50.670;6.474;2022-09-19T05:19:49;17.50;99.90
15789;DHT22;59075;50.670;6.474;2022-09-19T05:22:15;17.50;99.90
15789;DHT22;59075;50.670;6.474;2022-09-19T05:24:42;17.50;99.90
15789;DHT22;59075;50.670;6.474;2022-09-19T05:27:09;17.50;99.90
15789;DHT22;59075;50.670;6.474;2022-09-19T05:29:37;17.50;99.90
15789;DHT22;59075;50.670;6.474;2022-09-19T05:32:05;17.50;99.90
15789;DHT22;59075;50.670;6.474;2022-09-19T05:34:33;17.50;99.90
15789;DHT22;59075;50.670;6.474;2022-09-19T05:37:00;17.50;99.90
15789;DHT22;59075;50.670;6.474;2022-09-19T05:39:26;17.50;99.90
15789;DHT22;59075;50.670;6.474;2022-09-19T05:41:53;17.50;99.90
15789;DHT22;59075;50.670;6.474;2022-09-19T05:44:20;17.50;99.90
15789;DHT22;59075;50.670;6.474;2022-09-19T05:46:48;17.50;99.90
15789;DHT22;59075;50.670;6.474;2022-09-19T05:49:18;17.50;99.90
15789;DHT22;59075;50.670;6.474;2022-09-19T05:51:46;17.50;99.90
15789;DHT22;59075;50.670;6.474;2022-09-19T05:56:39;17.50;99.90
15789;DHT22;59075;50.670;6.474;2022-09-19T05:59:05;17.50;99.90
15789;DHT22;59075;50.670;6.474;2022-09-19T06:01:33;17.50;99.90
15789;DHT22;59075;50.670;6.474;2022-09-19T06:04:01;17.50;99.90
15789;DHT22;59075;50.670;6.474;2022-09-19T06:06:28;17.50;99.90
15789;DHT22;59075;50.670;6.474;2022-09-19T06:08:56;17.50;99.90
15789;DHT22;59075;50.670;6.474;2022-09-19T06:11:24;17.50;99.90
15789;DHT22;59075;50.670;6.474;2022-09-19T06:13:51;17.50;99.90
15789;DHT22;59075;50.670;6.474;2022-09-19T06:19:02;17.50;99.90
15789;DHT22;59075;50.670;6.474;2022-09-19T06:23:59;17.50;99.90
15789;DHT22;59075;50.670;6.474;2022-09-19T06:26:26;17.50;99.90
15789;DHT22;59075;50.670;6.474;2022-09-19T06:28:53;17.50;99.90
15789;DHT22;59075;50.670;6.474;2022-09-19T06:31:20;17.50;99.90
15789;DHT22;59075;50.670;6.474;2022-09-19T06:33:46;17.50;99.90
15789;DHT22;59075;50.670;6.474;2022-09-19T06:36:13;17.50;99.90
15789;DHT22;59075;50.670;6.474;2022-09-19T06:38:41;17.50;99.90
15789;DHT22;59075;50.670;6.474;2022-09-19T06:41:10;17.50;99.90
15789;DHT22;59075;50.670;6.474;2022-09-19T06:43:37;17.50;99.90
15789;DHT22;59075;50.670;6.474;2022-09-19T06:46:04;17.50;99.90
15789;DHT22;59075;50.670;6.474;2022-09-19T06:48:31;17.50;99.90
15789;DHT22;59075;50.670;6.474;2022-09-19T06:51:00;17.50;99.90
15789;DHT22;59075;50.670;6.474;2022-09-19T06:53:26;17.50;99.90
15789;DHT22;59075;50.670;6.474;2022-09-19T06:55:55;17.50;99.90
15789;DHT22;59075;50.670;6.474;2022-09-19T06:58:23;17.50;99.90
15789;DHT22;59075;50.670;6.474;2022-09-19T07:00:51;17.50;99.90
15789;DHT22;59075;50.670;6.474;2022-09-19T07:03:17;17.50;99.90
15789;DHT22;59075;50.670;6.474;2022-09-19T07:05:45;17.50;99.90
15789;DHT22;59075;50.670;6.474;2022-09-19T07:08:13;17.50;99.90
15789;DHT22;59075;50.670;6.474;2022-09-19T07:10:40;17.50;99.90
15789;DHT22;59075;50.670;6.474;2022-09-19T07:13:09;17.40;99.90
15789;DHT22;59075;50.670;6.474;2022-09-19T07:15:41;17.60;99.90
15789;DHT22;59075;50.670;6.474;2022-09-19T07:20:36;17.50;99.90
15789;DHT22;59075;50.670;6.474;2022-09-19T07:23:05;17.50;99.90
15789;DHT22;59075;50.670;6.474;2022-09-19T07:25:32;17.50;99.90
15789;DHT22;59075;50.670;6.474;2022-09-19T07:28:01;17.60;99.90
15789;DHT22;59075;50.670;6.474;2022-09-19T07:30:28;17.60;99.90
15789;DHT22;59075;50.670;6.474;2022-09-19T07:32:58;17.50;99.90
15789;DHT22;59075;50.670;6.474;2022-09-19T07:35:25;17.60;99.90
15789;DHT22;59075;50.670;6.474;2022-09-19T07:37:53;17.60;99.90
15789;DHT22;59075;50.670;6.474;2022-09-19T07:40:20;17.60;99.90
15789;DHT22;59075;50.670;6.474;2022-09-19T07:42:46;17.60;99.90
15789;DHT22;59075;50.670;6.474;2022-09-19T07:45:13;17.60;99.90
15789;DHT22;59075;50.670;6.474;2022-09-19T07:47:42;17.60;99.90
15789;DHT22;59075;50.670;6.474;2022-09-19T07:50:10;17.60;99.90
15789;DHT22;59075;50.670;6.474;2022-09-19T07:52:39;17.70;99.90
15789;DHT22;59075;50.670;6.474;2022-09-19T07:57:35;17.60;99.90
15789;DHT22;59075;50.670;6.474;2022-09-19T08:00:03;17.70;99.90
15789;DHT22;59075;50.670;6.474;2022-09-19T08:04:57;17.60;99.90
15789;DHT22;59075;50.670;6.474;2022-09-19T08:07:26;17.70;99.90
15789;DHT22;59075;50.670;6.474;2022-09-19T08:09:52;17.70;99.90
15789;DHT22;59075;50.670;6.474;2022-09-19T08:12:19;17.70;99.90
15789;DHT22;59075;50.670;6.474;2022-09-19T08:14:45;17.70;99.90
15789;DHT22;59075;50.670;6.474;2022-09-19T08:17:12;17.70;99.90
15789;DHT22;59075;50.670;6.474;2022-09-19T08:19:39;17.70;99.90
15789;DHT22;59075;50.670;6.474;2022-09-19T08:22:05;17.70;99.90
15789;DHT22;59075;50.670;6.474;2022-09-19T08:24:33;17.70;99.90
15789;DHT22;59075;50.670;6.474;2022-09-19T08:27:00;17.70;99.90
15789;DHT22;59075;50.670;6.474;2022-09-19T08:29:27;17.70;99.90
15789;DHT22;59075;50.670;6.474;2022-09-19T08:31:54;17.80;99.90
15789;DHT22;59075;50.670;6.474;2022-09-19T08:34:21;17.80;99.90
15789;DHT22;59075;50.670;6.474;2022-09-19T08:36:47;17.80;99.90
15789;DHT22;59075;50.670;6.474;2022-09-19T08:39:14;17.80;99.90
15789;DHT22;59075;50.670;6.474;2022-09-19T08:42:01;17.80;99.90
15789;DHT22;59075;50.670;6.474;2022-09-19T08:44:42;17.80;99.90
15789;DHT22;59075;50.670;6.474;2022-09-19T08:47:14;17.80;99.90
15789;DHT22;59075;50.670;6.474;2022-09-19T08:49:48;17.80;99.90
15789;DHT22;59075;50.670;6.474;2022-09-19T08:52:25;17.80;99.90
15789;DHT22;59075;50.670;6.474;2022-09-19T08:54:54;17.80;99.90
15789;DHT22;59075;50.670;6.474;2022-09-19T08:57:26;17.80;99.90
15789;DHT22;59075;50.670;6.474;2022-09-19T08:59:54;17.80;99.90
15789;DHT22;59075;50.670;6.474;2022-09-19T09:02:28;17.90;99.90
15789;DHT22;59075;50.670;6.474;2022-09-19T09:04:57;17.80;99.90
15789;DHT22;59075;50.670;6.474;2022-09-19T09:07:34;17.80;99.90
15789;DHT22;59075;50.670;6.474;2022-09-19T09:10:12;17.80;99.90
15789;DHT22;59075;50.670;6.474;2022-09-19T09:12:53;17.80;99.90
15789;DHT22;59075;50.670;6.474;2022-09-19T09:15:25;17.80;99.90
15789;DHT22;59075;50.670;6.474;2022-09-19T09:18:06;17.80;99.90
15789;DHT22;59075;50.670;6.474;2022-09-19T09:20:47;17.80;99.90
15789;DHT22;59075;50.670;6.474;2022-09-19T09:23:17;17.90;99.90
15789;DHT22;59075;50.670;6.474;2022-09-19T09:25:46;17.90;99.90
15789;DHT22;59075;50.670;6.474;2022-09-19T09:28:18;17.90;99.90
15789;DHT22;59075;50.670;6.474;2022-09-19T09:30:52;17.80;99.90
15789;DHT22;59075;50.670;6.474;2022-09-19T09:33:25;17.90;99.90
15789;DHT22;59075;50.670;6.474;2022-09-19T09:35:57;17.80;99.90
15789;DHT22;59075;50.670;6.474;2022-09-19T09:38:30;17.80;99.90
15789;DHT22;59075;50.670;6.474;2022-09-19T09:41:04;17.90;99.90
15789;DHT22;59075;50.670;6.474;2022-09-19T09:44:11;17.80;99.90
15789;DHT22;59075;50.670;6.474;2022-09-19T09:46:49;17.80;99.90
15789;DHT22;59075;50.670;6.474;2022-09-19T09:49:21;17.90;99.90
15789;DHT22;59075;50.670;6.474;2022-09-19T09:51:53;17.90;99.90
15789;DHT22;59075;50.670;6.474;2022-09-19T09:54:33;17.90;99.90
15789;DHT22;59075;50.670;6.474;2022-09-19T09:57:29;17.90;99.90
15789;DHT22;59075;50.670;6.474;2022-09-19T10:00:01;17.90;99.90
15789;DHT22;59075;50.670;6.474;2022-09-19T10:02:52;17.90;99.90
15789;DHT22;59075;50.670;6.474;2022-09-19T10:05:46;17.90;99.90
15789;DHT22;59075;50.670;6.474;2022-09-19T10:08:18;17.90;99.90
15789;DHT22;59075;50.670;6.474;2022-09-19T10:10:47;17.90;99.90
15789;DHT22;59075;50.670;6.474;2022-09-19T10:13:22;17.90;99.90
15789;DHT22;59075;50.670;6.474;2022-09-19T10:15:54;17.90;99.90
15789;DHT22;59075;50.670;6.474;2022-09-19T10:18:24;17.90;99.90
15789;DHT22;59075;50.670;6.474;2022-09-19T10:20:53;17.90;99.90
15789;DHT22;59075;50.670;6.474;2022-09-19T10:23:23;17.90;99.90
15789;DHT22;59075;50.670;6.474;2022-09-19T10:25:51;17.90;99.90
15789;DHT22;59075;50.670;6.474;2022-09-19T10:28:27;18.00;99.90
15789;DHT22;59075;50.670;6.474;2022-09-19T10:30:59;18.00;99.90
15789;DHT22;59075;50.670;6.474;2022-09-19T10:33:32;18.00;99.90
15789;DHT22;59075;50.670;6.474;2022-09-19T10:36:06;18.00;99.90
15789;DHT22;59075;50.670;6.474;2022-09-19T10:38:46;18.00;99.90
15789;DHT22;59075;50.670;6.474;2022-09-19T10:41:14;18.00;99.90
15789;DHT22;59075;50.670;6.474;2022-09-19T10:43:45;18.00;99.90
15789;DHT22;59075;50.670;6.474;2022-09-19T10:46:18;18.10;99.90
15789;DHT22;59075;50.670;6.474;2022-09-19T10:48:50;18.10;99.90
15789;DHT22;59075;50.670;6.474;2022-09-19T10:53:47;18.10;99.90
15789;DHT22;59075;50.670;6.474;2022-09-19T10:56:21;18.10;99.90
15789;DHT22;59075;50.670;6.474;2022-09-19T10:58:52;18.10;99.90
15789;DHT22;59075;50.670;6.474;2022-09-19T11:01:26;18.10;99.90
15789;DHT22;59075;50.670;6.474;2022-09-19T11:04:01;18.10;99.90
15789;DHT22;59075;50.670;6.474;2022-09-19T11:06:29;18.10;99.90
15789;DHT22;59075;50.670;6.474;2022-09-19T11:08:57;18.10;99.90
15789;DHT22;59075;50.670;6.474;2022-09-19T11:11:31;18.10;99.90
15789;DHT22;59075;50.670;6.474;2022-09-19T11:14:07;18.10;99.90
15789;DHT22;59075;50.670;6.474;2022-09-19T11:16:45;18.10;99.90
15789;DHT22;59075;50.670;6.474;2022-09-19T11:21:53;18.10;99.90
15789;DHT22;59075;50.670;6.474;2022-09-19T11:24:36;18.10;99.90
15789;DHT22;59075;50.670;6.474;2022-09-19T11:27:21;18.10;99.90
15789;DHT22;59075;50.670;6.474;2022-09-19T11:30:01;18.20;99.90
15789;DHT22;59075;50.670;6.474;2022-09-19T11:32:57;18.20;99.90
15789;DHT22;59075;50.670;6.474;2022-09-19T11:35:29;18.20;99.90
15789;DHT22;59075;50.670;6.474;2022-09-19T11:38:13;18.20;99.90
15789;DHT22;59075;50.670;6.474;2022-09-19T11:40:52;18.20;99.90
15789;DHT22;59075;50.670;6.474;2022-09-19T11:43:32;18.20;99.90
15789;DHT22;59075;50.670;6.474;2022-09-19T11:46:19;18.20;99.90
15789;DHT22;59075;50.670;6.474;2022-09-19T11:49:10;18.20;99.90
15789;DHT22;59075;50.670;6.474;2022-09-19T11:51:46;18.20;99.90
15789;DHT22;59075;50.670;6.474;2022-09-19T11:54:37;18.10;99.90
15789;DHT22;59075;50.670;6.474;2022-09-19T11:57:17;18.10;99.90
15789;DHT22;59075;50.670;6.474;2022-09-19T12:00:00;18.10;99.90
15789;DHT22;59075;50.670;6.474;2022-09-19T12:05:30;18.10;99.90
15789;DHT22;59075;50.670;6.474;2022-09-19T12:10:41;18.10;99.90
15789;DHT22;59075;50.670;6.474;2022-09-19T12:13:13;18.10;99.90
15789;DHT22;59075;50.670;6.474;2022-09-19T12:15:46;18.10;99.90
15789;DHT22;59075;50.670;6.474;2022-09-19T12:18:17;18.10;99.90
15789;DHT22;59075;50.670;6.474;2022-09-19T12:20:50;18.20;99.90
15789;DHT22;59075;50.670;6.474;2022-09-19T12:23:21;18.10;99.90
15789;DHT22;59075;50.670;6.474;2022-09-19T12:26:08;18.10;99.90
15789;DHT22;59075;50.670;6.474;2022-09-19T12:28:44;18.10;99.90
15789;DHT22;59075;50.670;6.474;2022-09-19T12:31:17;18.10;99.90
15789;DHT22;59075;50.670;6.474;2022-09-19T12:33:49;18.10;99.90
15789;DHT22;59075;50.670;6.474;2022-09-19T12:36:24;18.10;99.90
15789;DHT22;59075;50.670;6.474;2022-09-19T12:38:58;18.10;99.90
15789;DHT22;59075;50.670;6.474;2022-09-19T12:41:35;18.10;99.90
15789;DHT22;59075;50.670;6.474;2022-09-19T12:44:12;18.10;99.90
15789;DHT22;59075;50.670;6.474;2022-09-19T12:46:49;18.20;99.90
15789;DHT22;59075;50.670;6.474;2022-09-19T12:51:56;18.10;99.90
15789;DHT22;59075;50.670;6.474;2022-09-19T12:54:32;18.10;99.90
15789;DHT22;59075;50.670;6.474;2022-09-19T12:57:06;18.10;99.90
15789;DHT22;59075;50.670;6.474;2022-09-19T12:59:34;18.10;99.90
15789;DHT22;59075;50.670;6.474;2022-09-19T13:02:13;18.10;99.90
15789;DHT22;59075;50.670;6.474;2022-09-19T13:04:46;18.10;99.90
15789;DHT22;59075;50.670;6.474;2022-09-19T13:07:21;18.10;99.90
15789;DHT22;59075;50.670;6.474;2022-09-19T13:10:01;18.10;99.90
15789;DHT22;59075;50.670;6.474;2022-09-19T13:12:37;18.10;99.90
15789;DHT22;59075;50.670;6.474;2022-09-19T13:15:13;18.10;99.90
15789;DHT22;59075;50.670;6.474;2022-09-19T13:17:45;18.10;99.90
15789;DHT22;59075;50.670;6.474;2022-09-19T13:20:33;18.10;99.90
15789;DHT22;59075;50.670;6.474;2022-09-19T13:23:23;18.10;99.90
15789;DHT22;59075;50.670;6.474;2022-09-19T13:29:04;18.10;99.90
15789;DHT22;59075;50.670;6.474;2022-09-19T13:31:58;18.20;99.90
15789;DHT22;59075;50.670;6.474;2022-09-19T13:34:39;18.20;99.90
15789;DHT22;59075;50.670;6.474;2022-09-19T13:37:45;18.20;99.90
15789;DHT22;59075;50.670;6.474;2022-09-19T13:40:21;18.30;99.90
15789;DHT22;59075;50.670;6.474;2022-09-19T13:42:57;18.30;99.90
15789;DHT22;59075;50.670;6.474;2022-09-19T13:45:33;18.30;99.90
15789;DHT22;59075;50.670;6.474;2022-09-19T13:48:05;18.30;99.90
15789;DHT22;59075;50.670;6.474;2022-09-19T13:50:43;18.30;99.90
15789;DHT22;59075;50.670;6.474;2022-09-19T13:53:27;18.30;99.90
15789;DHT22;59075;50.670;6.474;2022-09-19T13:56:03;18.30;99.90
15789;DHT22;59075;50.670;6.474;2022-09-19T13:58:32;18.30;99.90
15789;DHT22;59075;50.670;6.474;2022-09-19T14:01:15;18.30;99.90
15789;DHT22;59075;50.670;6.474;2022-09-19T14:03:44;18.30;99.90
15789;DHT22;59075;50.670;6.474;2022-09-19T14:06:23;18.30;99.90
15789;DHT22;59075;50.670;6.474;2022-09-19T14:09:17;18.30;99.90
15789;DHT22;59075;50.670;6.474;2022-09-19T14:11:46;18.40;99.90
15789;DHT22;59075;50.670;6.474;2022-09-19T14:14:52;18.40;99.90
15789;DHT22;59075;50.670;6.474;2022-09-19T14:17:26;18.40;99.90
15789;DHT22;59075;50.670;6.474;2022-09-19T14:19:54;18.30;99.90
15789;DHT22;59075;50.670;6.474;2022-09-19T14:22:37;18.30;99.90
15789;DHT22;59075;50.670;6.474;2022-09-19T14:25:15;18.30;99.90
15789;DHT22;59075;50.670;6.474;2022-09-19T14:31:05;18.30;99.90
15789;DHT22;59075;50.670;6.474;2022-09-19T14:37:26;18.30;99.90
15789;DHT22;59075;50.670;6.474;2022-09-19T14:40:17;18.30;99.90
15789;DHT22;59075;50.670;6.474;2022-09-19T14:43:26;18.30;99.90
15789;DHT22;59075;50.670;6.474;2022-09-19T14:46:15;18.30;99.90
15789;DHT22;59075;50.670;6.474;2022-09-19T14:48:48;18.40;99.90
15789;DHT22;59075;50.670;6.474;2022-09-19T14:54:04;18.30;99.90
15789;DHT22;59075;50.670;6.474;2022-09-19T14:56:31;18.30;99.90
15789;DHT22;59075;50.670;6.474;2022-09-19T14:58:59;18.30;99.90
15789;DHT22;59075;50.670;6.474;2022-09-19T15:01:28;18.30;99.90
15789;DHT22;59075;50.670;6.474;2022-09-19T15:03:59;18.30;99.90
15789;DHT22;59075;50.670;6.474;2022-09-19T15:06:29;18.40;99.90
15789;DHT22;59075;50.670;6.474;2022-09-19T15:08:57;18.30;99.90
15789;DHT22;59075;50.670;6.474;2022-09-19T15:11:24;18.40;99.90
15789;DHT22;59075;50.670;6.474;2022-09-19T15:13:53;18.40;99.90
15789;DHT22;59075;50.670;6.474;2022-09-19T15:16:22;18.40;99.90
15789;DHT22;59075;50.670;6.474;2022-09-19T15:18:50;18.30;99.90
15789;DHT22;59075;50.670;6.474;2022-09-19T15:23:47;18.30;99.90
15789;DHT22;59075;50.670;6.474;2022-09-19T15:26:17;18.30;99.90
15789;DHT22;59075;50.670;6.474;2022-09-19T15:28:56;18.30;99.90
15789;DHT22;59075;50.670;6.474;2022-09-19T15:31:26;18.30;99.90
15789;DHT22;59075;50.670;6.474;2022-09-19T15:33:59;18.30;99.90
15789;DHT22;59075;50.670;6.474;2022-09-19T15:36:28;18.30;99.90
15789;DHT22;59075;50.670;6.474;2022-09-19T15:38:56;18.30;99.90
15789;DHT22;59075;50.670;6.474;2022-09-19T15:41:25;18.30;99.90
15789;DHT22;59075;50.670;6.474;2022-09-19T15:43:54;18.30;99.90
15789;DHT22;59075;50.670;6.474;2022-09-19T15:46:43;18.30;99.90
15789;DHT22;59075;50.670;6.474;2022-09-19T15:49:20;18.30;99.90
15789;DHT22;59075;50.670;6.474;2022-09-19T15:51:54;18.30;99.90
15789;DHT22;59075;50.670;6.474;2022-09-19T15:54:22;18.30;99.90
15789;DHT22;59075;50.670;6.474;2022-09-19T15:56:54;18.30;99.90
15789;DHT22;59075;50.670;6.474;2022-09-19T15:59:23;18.30;99.90
15789;DHT22;59075;50.670;6.474;2022-09-19T16:01:55;18.30;99.90
15789;DHT22;59075;50.670;6.474;2022-09-19T16:06:59;18.30;99.90
15789;DHT22;59075;50.670;6.474;2022-09-19T16:09:45;18.30;99.90
15789;DHT22;59075;50.670;6.474;2022-09-19T16:12:33;18.30;99.90
15789;DHT22;59075;50.670;6.474;2022-09-19T16:15:02;18.30;99.90
15789;DHT22;59075;50.670;6.474;2022-09-19T16:20:59;18.30;99.90
15789;DHT22;59075;50.670;6.474;2022-09-19T16:23:27;18.30;99.90
15789;DHT22;59075;50.670;6.474;2022-09-19T16:26:00;18.20;99.90
15789;DHT22;59075;50.670;6.474;2022-09-19T16:31:31;18.20;99.90
15789;DHT22;59075;50.670;6.474;2022-09-19T16:34:02;18.20;99.90
15789;DHT22;59075;50.670;6.474;2022-09-19T16:36:30;18.20;99.90
15789;DHT22;59075;50.670;6.474;2022-09-19T16:39:21;18.20;99.90
15789;DHT22;59075;50.670;6.474;2022-09-19T16:41:59;18.20;99.90
15789;DHT22;59075;50.670;6.474;2022-09-19T16:44:34;18.20;99.90
15789;DHT22;59075;50.670;6.474;2022-09-19T16:47:12;18.20;99.90
15789;DHT22;59075;50.670;6.474;2022-09-19T16:49:41;18.20;99.90
15789;DHT22;59075;50.670;6.474;2022-09-19T16:52:15;18.20;99.90
15789;DHT22;59075;50.670;6.474;2022-09-19T16:54:43;18.20;99.90
15789;DHT22;59075;50.670;6.474;2022-09-19T16:57:11;18.20;99.90
15789;DHT22;59075;50.670;6.474;2022-09-19T16:59:39;18.20;99.90
15789;DHT22;59075;50.670;6.474;2022-09-19T17:02:12;18.20;99.90
15789;DHT22;59075;50.670;6.474;2022-09-19T17:04:39;18.20;99.90
15789;DHT22;59075;50.670;6.474;2022-09-19T17:07:10;18.20;99.90
15789;DHT22;59075;50.670;6.474;2022-09-19T17:09:37;18.20;99.90
15789;DHT22;59075;50.670;6.474;2022-09-19T17:12:04;18.20;99.90
15789;DHT22;59075;50.670;6.474;2022-09-19T17:14:31;18.20;99.90
15789;DHT22;59075;50.670;6.474;2022-09-19T17:16:57;18.20;99.90
15789;DHT22;59075;50.670;6.474;2022-09-19T17:19:24;18.20;99.90
15789;DHT22;59075;50.670;6.474;2022-09-19T17:21:51;18.10;99.90
15789;DHT22;59075;50.670;6.474;2022-09-19T17:24:19;18.20;99.90
15789;DHT22;59075;50.670;6.474;2022-09-19T17:26:45;18.10;99.90
15789;DHT22;59075;50.670;6.474;2022-09-19T17:29:12;18.10;99.90
15789;DHT22;59075;50.670;6.474;2022-09-19T17:31:39;18.20;99.90
15789;DHT22;59075;50.670;6.474;2022-09-19T17:34:07;18.20;99.90
15789;DHT22;59075;50.670;6.474;2022-09-19T17:36:34;18.20;99.90
15789;DHT22;59075;50.670;6.474;2022-09-19T17:39:01;18.10;99.90
15789;DHT22;59075;50.670;6.474;2022-09-19T17:41:30;18.10;99.90
15789;DHT22;59075;50.670;6.474;2022-09-19T17:43:59;18.10;99.90
15789;DHT22;59075;50.670;6.474;2022-09-19T17:46:26;18.10;99.90
15789;DHT22;59075;50.670;6.474;2022-09-19T17:48:53;18.10;99.90
15789;DHT22;59075;50.670;6.474;2022-09-19T17:51:20;18.10;99.90
15789;DHT22;59075;50.670;6.474;2022-09-19T17:53:48;18.10;99.90
15789;DHT22;59075;50.670;6.474;2022-09-19T17:56:16;18.10;99.90
15789;DHT22;59075;50.670;6.474;2022-09-19T17:58:45;18.10;99.90
15789;DHT22;59075;50.670;6.474;2022-09-19T18:01:14;18.10;99.90
15789;DHT22;59075;50.670;6.474;2022-09-19T18:03:58;18.10;99.90
15789;DHT22;59075;50.670;6.474;2022-09-19T18:06:25;18.10;99.90
15789;DHT22;59075;50.670;6.474;2022-09-19T18:08:51;18.10;99.90
15789;DHT22;59075;50.670;6.474;2022-09-19T18:11:18;18.10;99.90
15789;DHT22;59075;50.670;6.474;2022-09-19T18:13:47;18.10;99.90
15789;DHT22;59075;50.670;6.474;2022-09-19T18:16:15;18.10;99.90
15789;DHT22;59075;50.670;6.474;2022-09-19T18:18:42;18.10;99.90
15789;DHT22;59075;50.670;6.474;2022-09-19T18:21:09;18.10;99.90
15789;DHT22;59075;50.670;6.474;2022-09-19T18:23:37;18.10;99.90
15789;DHT22;59075;50.670;6.474;2022-09-19T18:26:13;18.10;99.90
15789;DHT22;59075;50.670;6.474;2022-09-19T18:28:42;18.10;99.90
15789;DHT22;59075;50.670;6.474;2022-09-19T18:31:12;18.10;99.90
15789;DHT22;59075;50.670;6.474;2022-09-19T18:36:11;18.10;99.90
15789;DHT22;59075;50.670;6.474;2022-09-19T18:41:06;18.10;99.90
15789;DHT22;59075;50.670;6.474;2022-09-19T18:43:33;18.10;99.90
15789;DHT22;59075;50.670;6.474;2022-09-19T18:46:00;18.10;99.90
15789;DHT22;59075;50.670;6.474;2022-09-19T18:48:28;18.10;99.90
15789;DHT22;59075;50.670;6.474;2022-09-19T18:50:55;18.10;99.90
15789;DHT22;59075;50.670;6.474;2022-09-19T18:53:22;18.10;99.90
15789;DHT22;59075;50.670;6.474;2022-09-19T18:55:51;18.10;99.90
15789;DHT22;59075;50.670;6.474;2022-09-19T18:58:18;18.10;99.90
15789;DHT22;59075;50.670;6.474;2022-09-19T19:00:45;18.10;99.90
15789;DHT22;59075;50.670;6.474;2022-09-19T19:03:12;18.10;99.90
15789;DHT22;59075;50.670;6.474;2022-09-19T19:05:43;18.00;99.90
15789;DHT22;59075;50.670;6.474;2022-09-19T19:08:11;18.00;99.90
15789;DHT22;59075;50.670;6.474;2022-09-19T19:10:38;18.00;99.90
15789;DHT22;59075;50.670;6.474;2022-09-19T19:13:06;18.00;99.90
15789;DHT22;59075;50.670;6.474;2022-09-19T19:15:33;18.00;99.90
15789;DHT22;59075;50.670;6.474;2022-09-19T19:18:00;18.00;99.90
15789;DHT22;59075;50.670;6.474;2022-09-19T19:20:27;18.00;99.90
15789;DHT22;59075;50.670;6.474;2022-09-19T19:22:55;18.00;99.90
15789;DHT22;59075;50.670;6.474;2022-09-19T19:25:22;18.00;99.90
15789;DHT22;59075;50.670;6.474;2022-09-19T19:27:49;18.00;99.90
15789;DHT22;59075;50.670;6.474;2022-09-19T19:30:16;18.00;99.90
15789;DHT22;59075;50.670;6.474;2022-09-19T19:32:43;18.00;99.90
15789;DHT22;59075;50.670;6.474;2022-09-19T19:35:10;18.00;99.90
15789;DHT22;59075;50.670;6.474;2022-09-19T19:37:37;18.00;99.90
15789;DHT22;59075;50.670;6.474;2022-09-19T19:40:07;18.00;99.90
15789;DHT22;59075;50.670;6.474;2022-09-19T19:42:33;18.00;99.90
15789;DHT22;59075;50.670;6.474;2022-09-19T19:45:00;18.00;99.90
15789;DHT22;59075;50.670;6.474;2022-09-19T19:47:27;18.00;99.90
15789;DHT22;59075;50.670;6.474;2022-09-19T19:49:53;18.00;99.90
15789;DHT22;59075;50.670;6.474;2022-09-19T19:52:20;18.00;99.90
15789;DHT22;59075;50.670;6.474;2022-09-19T19:54:47;18.00;99.90
15789;DHT22;59075;50.670;6.474;2022-09-19T19:57:15;18.00;99.90
15789;DHT22;59075;50.670;6.474;2022-09-19T19:59:41;17.90;99.90
15789;DHT22;59075;50.670;6.474;2022-09-19T20:02:11;18.00;99.90
15789;DHT22;59075;50.670;6.474;2022-09-19T20:04:38;18.00;99.90
15789;DHT22;59075;50.670;6.474;2022-09-19T20:07:05;18.00;99.90
15789;DHT22;59075;50.670;6.474;2022-09-19T20:09:32;18.00;99.90
15789;DHT22;59075;50.670;6.474;2022-09-19T20:11:59;18.00;99.90
15789;DHT22;59075;50.670;6.474;2022-09-19T20:14:27;18.00;99.90
15789;DHT22;59075;50.670;6.474;2022-09-19T20:16:54;17.90;99.90
15789;DHT22;59075;50.670;6.474;2022-09-19T20:19:21;18.00;99.90
15789;DHT22;59075;50.670;6.474;2022-09-19T20:21:48;17.90;99.90
15789;DHT22;59075;50.670;6.474;2022-09-19T20:24:18;17.90;99.90
15789;DHT22;59075;50.670;6.474;2022-09-19T20:26:46;18.00;99.90
15789;DHT22;59075;50.670;6.474;2022-09-19T20:29:15;18.00;99.90
15789;DHT22;59075;50.670;6.474;2022-09-19T20:31:49;18.00;99.90
15789;DHT22;59075;50.670;6.474;2022-09-19T20:34:16;18.00;99.90
15789;DHT22;59075;50.670;6.474;2022-09-19T20:36:43;18.00;99.90
15789;DHT22;59075;50.670;6.474;2022-09-19T20:39:09;17.90;99.90
15789;DHT22;59075;50.670;6.474;2022-09-19T20:44:08;17.90;99.90
15789;DHT22;59075;50.670;6.474;2022-09-19T20:46:35;17.90;99.90
15789;DHT22;59075;50.670;6.474;2022-09-19T20:49:04;17.90;99.90
15789;DHT22;59075;50.670;6.474;2022-09-19T20:51:33;18.00;99.90
15789;DHT22;59075;50.670;6.474;2022-09-19T20:54:04;17.90;99.90
15789;DHT22;59075;50.670;6.474;2022-09-19T20:56:31;18.00;99.90
15789;DHT22;59075;50.670;6.474;2022-09-19T20:58:59;17.90;99.90
